Jose M.entrecanales — EADD — position and weather

sailwx.info

Track history (hours):
 
Tides and Currents Weather Stations Pressure Air Temp Water Temp Dewpoint Dewpoint Depression Visibility Wind Speed Wind Dir Waves Ship Positions

Jose M.entrecanales

Last reported at 2017-Sep-24 19:00 UTC. Time now 2017-Sep-24 19:29 UTC.
Position N 29°36' W 014°50'.

Length 210 m; draft 6.9 m.

Type: Cargo ship. MMSI: 225430000.

Date/timePositionNaut miles runAvg speedWind from/ knotsBaromVisibWave heightAir tempDewpointWater temp
2017-Sep-24 19:00N 29°36' W 014°50'1019.9
2017-Sep-24 18:30N 29°43' W 014°42'1120.6
2017-Sep-24 18:00N 29°50' W 014°34'1020.6
2017-Sep-24 17:29N 29°58' W 014°25'1019.9
2017-Sep-24 17:00N 30°04' W 014°17'1019.7
2017-Sep-24 16:30N 30°11' W 014°08'5919.8
2017-Sep-24 13:32N 30°52' W 013°19'119.9
2017-Sep-24 13:29N 30°52' W 013°19'1020.1
2017-Sep-24 13:01N 30°59' W 013°11'1020.1
2017-Sep-24 12:31N 31°06' W 013°03'1020.7
2017-Sep-24 12:00N 31°14' W 012°54'1020.7
2017-Sep-24 11:31N 31°21' W 012°46'1020.6
2017-Sep-24 11:00N 31°28' W 012°37'1020.5
2017-Sep-24 10:31N 31°35' W 012°29'1020.3
2017-Sep-24 10:00N 31°43' W 012°20'1619.4
2017-Sep-24 09:11N 31°54' W 012°07'2020.1
2017-Sep-24 08:12N 32°08' W 011°50'620.8
2017-Sep-24 07:54N 32°12' W 011°45'820.6
2017-Sep-24 07:30N 32°18' W 011°38'1020.8
2017-Sep-24 07:00N 32°25' W 011°29'1018.2
2017-Sep-24 06:27N 32°32' W 011°20'1021.2
2017-Sep-24 05:58N 32°39' W 011°12'1021.3
2017-Sep-24 05:30N 32°46' W 011°03'1121.1
2017-Sep-24 05:00N 32°53' W 010°54'1020.8
2017-Sep-24 04:30N 33°01' W 010°46'  
2017-Sep-21 01:57N 29°03' W 015°29'817.8
2017-Sep-21 01:30N 28°58' W 015°35'918.0
2017-Sep-21 01:01N 28°52' W 015°43'918.1
2017-Sep-21 00:30N 28°46' W 015°50'918.0
2017-Sep-21 00:00N 28°39' W 015°57'918.4
2017-Sep-20 23:30N 28°32' W 016°04'916.7
2017-Sep-20 22:59N 28°29' W 016°13'1 2.6
2017-Sep-20 22:30N 28°29' W 016°15'0 0.0
2017-Sep-20 21:59N 28°29' W 016°15'0 0.0
2017-Sep-20 21:29N 28°29' W 016°15'0 0.0
2017-Sep-20 20:58N 28°29' W 016°15'0 0.0
2017-Sep-20 20:30N 28°29' W 016°15'0 0.0
2017-Sep-20 20:00N 28°29' W 016°15'0 0.0
2017-Sep-20 19:30N 28°29' W 016°15'0 0.0
2017-Sep-20 19:00N 28°29' W 016°15'1 2.6
2017-Sep-20 18:29N 28°29' W 016°13'815.7
2017-Sep-20 18:00N 28°32' W 016°05'1618.0
2017-Sep-20 17:07N 28°38' W 016°23'319.8
2017-Sep-20 16:58N 28°38' W 016°26'1119.7
2017-Sep-20 16:24N 28°39' W 016°38'20 1.5
2017-Sep-20 03:04N 28°44' W 017°00'612.9
2017-Sep-20 02:34N 28°45' W 016°53'113.0
2017-Sep-20 02:28N 28°45' W 016°51'1113.2
2017-Sep-20 01:38N 28°45' W 016°39'513.0
2017-Sep-20 01:15N 28°46' W 016°33'312.5
2017-Sep-20 00:59N 28°46' W 016°30'612.5
2017-Sep-20 00:30N 28°46' W 016°23'612.6
2017-Sep-20 00:00N 28°47' W 016°16'713.0
2017-Sep-19 23:30N 28°47' W 016°08'612.6
2017-Sep-19 23:00N 28°46' W 016°01'713.4
2017-Sep-19 22:31N 28°43' W 015°55'919.0
2017-Sep-19 22:01N 28°38' W 015°45'918.6
2017-Sep-19 21:31N 28°32' W 015°37'1019.1
2017-Sep-19 21:01N 28°24' W 015°31'1019.0
2017-Sep-19 20:31N 28°16' W 015°26'918.1
2017-Sep-19 20:01N 28°07' W 015°22'3 5.4
2017-Sep-19 19:30N 28°09' W 015°25'0 0.0
2017-Sep-19 19:00N 28°09' W 015°25'0 0.0
2017-Sep-19 18:29N 28°09' W 015°25'0 0.0
2017-Sep-19 18:00N 28°09' W 015°25'0 0.0
2017-Sep-19 17:30N 28°09' W 015°25'0 0.0
2017-Sep-19 17:00N 28°09' W 015°25'0 0.0
2017-Sep-19 16:30N 28°09' W 015°25'0 0.0
2017-Sep-19 16:01N 28°09' W 015°25'0 0.0
2017-Sep-19 15:30N 28°09' W 015°25'0 0.0
2017-Sep-19 15:01N 28°09' W 015°25'0 0.0
2017-Sep-19 14:30N 28°09' W 015°25'0 0.0
2017-Sep-19 14:00N 28°09' W 015°25'0 0.0
2017-Sep-19 13:30N 28°09' W 015°25'0 0.0
2017-Sep-19 13:01N 28°09' W 015°25'0 0.0
2017-Sep-19 12:30N 28°09' W 015°25'0 0.0
2017-Sep-19 12:00N 28°09' W 015°25'0 0.0
2017-Sep-19 11:30N 28°09' W 015°25'0 0.0
2017-Sep-19 11:00N 28°09' W 015°25'0 0.0
2017-Sep-19 10:30N 28°09' W 015°25'0 0.0
2017-Sep-19 10:00N 28°09' W 015°25'0 0.0
2017-Sep-19 09:30N 28°09' W 015°25'0 0.0
2017-Sep-19 09:00N 28°09' W 015°25'0 0.0
2017-Sep-19 08:30N 28°09' W 015°25'0 0.0
2017-Sep-19 08:00N 28°09' W 015°25'0 0.0
2017-Sep-19 07:30N 28°09' W 015°25'0 0.0
2017-Sep-19 07:00N 28°09' W 015°25'0 0.0
2017-Sep-19 06:30N 28°09' W 015°25'0 0.0
2017-Sep-19 06:00N 28°09' W 015°25'0 0.0
2017-Sep-19 05:30N 28°09' W 015°25'0 0.0
2017-Sep-19 05:00N 28°09' W 015°25'0 0.0
2017-Sep-19 04:30N 28°09' W 015°25'0 0.0
2017-Sep-19 04:00N 28°09' W 015°25'0 0.0
2017-Sep-19 03:31N 28°09' W 015°25'0 0.0
2017-Sep-19 03:00N 28°09' W 015°25'0 0.0
2017-Sep-19 02:30N 28°09' W 015°25'0 0.0
2017-Sep-19 02:00N 28°09' W 015°25'0 0.0
2017-Sep-19 01:30N 28°09' W 015°25'0 0.0
2017-Sep-19 01:00N 28°09' W 015°25'0 0.0
2017-Sep-19 00:30N 28°09' W 015°25'0 0.0
2017-Sep-19 00:00N 28°09' W 015°25'0 0.0
2017-Sep-18 23:30N 28°09' W 015°25'0 0.0
2017-Sep-18 23:00N 28°09' W 015°25'0 0.0
2017-Sep-18 22:30N 28°09' W 015°25'0 0.0
2017-Sep-18 22:00N 28°09' W 015°25'0 0.0
2017-Sep-18 21:30N 28°09' W 015°25'0 0.0
2017-Sep-18 21:00N 28°09' W 015°25'0 0.0
2017-Sep-18 20:30N 28°09' W 015°25'0 0.0
2017-Sep-18 20:00N 28°09' W 015°25'0 0.0
2017-Sep-18 19:30N 28°09' W 015°25'0 0.0
2017-Sep-18 19:00N 28°09' W 015°25'0 0.0
2017-Sep-18 18:30N 28°09' W 015°25'0 0.0
2017-Sep-18 18:00N 28°09' W 015°25'0 0.0
2017-Sep-18 17:30N 28°09' W 015°25'0 0.0
2017-Sep-18 17:00N 28°09' W 015°25'0 0.0
2017-Sep-18 16:30N 28°09' W 015°25'0 0.0
2017-Sep-18 16:00N 28°09' W 015°25'0 0.0
2017-Sep-18 15:30N 28°09' W 015°25'0 0.0
2017-Sep-18 15:00N 28°09' W 015°25'0 0.0
2017-Sep-18 14:30N 28°09' W 015°25'0 0.0
2017-Sep-18 14:00N 28°09' W 015°25'0 0.0
2017-Sep-18 13:30N 28°09' W 015°25'0 0.0
2017-Sep-18 13:00N 28°09' W 015°25'0 0.0
2017-Sep-18 12:30N 28°09' W 015°25'0 0.0
2017-Sep-18 12:01N 28°09' W 015°25'0 0.0
2017-Sep-18 11:30N 28°09' W 015°25'0 0.0
2017-Sep-18 11:01N 28°09' W 015°25'0 0.0
2017-Sep-18 10:30N 28°09' W 015°25'0 0.0
2017-Sep-18 10:00N 28°09' W 015°25'0 0.0
2017-Sep-18 09:30N 28°09' W 015°25'0 0.0
2017-Sep-18 09:00N 28°09' W 015°25'0 0.7
2017-Sep-18 08:30N 28°08' W 015°25'2 3.5
2017-Sep-18 08:01N 28°07' W 015°24'5 9.1
2017-Sep-18 07:30N 28°12' W 015°23'815.7
2017-Sep-18 07:00N 28°17' W 015°30'917.1
2017-Sep-18 06:30N 28°19' W 015°39'816.9
2017-Sep-18 06:00N 28°21' W 015°49'816.7
2017-Sep-18 05:30N 28°24' W 015°58'817.0
2017-Sep-18 05:00N 28°27' W 016°07'713.8
2017-Sep-18 04:30N 28°29' W 016°14'0 0.9
2017-Sep-18 04:00N 28°29' W 016°15'0 0.0
2017-Sep-18 03:30N 28°29' W 016°15'0 0.0
2017-Sep-18 03:00N 28°29' W 016°15'0 0.0
2017-Sep-18 02:30N 28°29' W 016°15'0 0.0
2017-Sep-18 02:00N 28°29' W 016°15'0 0.0
2017-Sep-18 01:30N 28°29' W 016°15'0 0.0
2017-Sep-18 01:00N 28°29' W 016°15'0 0.7
2017-Sep-18 00:29N 28°29' W 016°14'612.3
2017-Sep-18 00:00N 28°30' W 016°08'1020.1
2017-Sep-17 23:31N 28°37' W 015°59'1120.5
2017-Sep-17 22:58N 28°45' W 015°50'920.0
2017-Sep-17 22:30N 28°51' W 015°43'1019.8
2017-Sep-17 22:00N 28°59' W 015°35'1019.7
2017-Sep-17 21:30N 29°05' W 015°27'1019.6
2017-Sep-17 21:00N 29°12' W 015°19'1019.6
2017-Sep-17 20:30N 29°19' W 015°11'1019.7
2017-Sep-17 20:00N 29°26' W 015°03'1020.1
2017-Sep-17 19:30N 29°33' W 014°55'1120.3
2017-Sep-17 18:58N 29°41' W 014°46'920.1
2017-Sep-17 18:30N 29°47' W 014°38'1419.9
2017-Sep-17 17:48N 29°56' W 014°26'620.0
2017-Sep-17 17:30N 30°01' W 014°21'3720.0
2017-Sep-17 15:39N 30°26' W 013°50'42520.3
2017-Sep-16 18:45N 35°24' W 007°49'520.5
2017-Sep-16 18:30N 35°28' W 007°44'1120.6
2017-Sep-16 17:58N 35°35' W 007°34'26 0.9
2017-Sep-15 11:59N 35°54' W 007°11'611.5
2017-Sep-15 11:30N 35°50' W 007°16'1811.7
2017-Sep-15 09:56N 35°37' W 007°32'511.9
2017-Sep-15 09:30N 35°33' W 007°37'1411.9
2017-Sep-15 08:22N 35°24' W 007°49'411.7
2017-Sep-15 08:00N 35°21' W 007°52'611.8
2017-Sep-15 07:30N 35°17' W 007°58'611.9
2017-Sep-15 07:00N 35°12' W 008°03'612.2
2017-Sep-15 06:30N 35°08' W 008°08'1312.7
2017-Sep-15 05:29N 34°59' W 008°18'918.5
2017-Sep-15 05:00N 34°53' W 008°27'918.5
2017-Sep-15 04:30N 34°47' W 008°35'918.5
2017-Sep-15 04:00N 34°40' W 008°43'918.5
2017-Sep-15 03:30N 34°34' W 008°51'918.5
2017-Sep-15 03:00N 34°27' W 008°59'5318.4
2017-Sep-15 00:06N 33°50' W 009°46'2118.3
2017-Sep-14 22:58N 33°36' W 010°04'918.1
2017-Sep-14 22:28N 33°29' W 010°11'1618.1
2017-Sep-14 21:36N 33°18' W 010°24'218.0
2017-Sep-14 21:30N 33°17' W 010°26'918.0
2017-Sep-14 21:00N 33°11' W 010°34'917.9
2017-Sep-14 20:31N 33°04' W 010°41'917.9
2017-Sep-14 20:00N 32°58' W 010°49'917.8
2017-Sep-14 19:30N 32°52' W 010°56'  
Track history (hours):
 
Tides and Currents Weather Stations Pressure Air Temp Water Temp Dewpoint Dewpoint Depression Visibility Wind Speed Wind Dir Waves Ship Positions

Jose M.entrecanales

Last reported at 2017-Sep-24 19:00 UTC. Time now 2017-Sep-24 19:29 UTC.
Position N 29°36' W 014°50'.

Length 210 m; draft 6.9 m.

Type: Cargo ship. MMSI: 225430000.

Date/timePositionNaut miles runAvg speedWind from/ knotsBaromVisibWave heightAir tempDewpointWater temp
2017-Sep-24 19:00N 29°36' W 014°50'1019.9
2017-Sep-24 18:30N 29°43' W 014°42'1120.6
2017-Sep-24 18:00N 29°50' W 014°34'1020.6
2017-Sep-24 17:29N 29°58' W 014°25'1019.9
2017-Sep-24 17:00N 30°04' W 014°17'1019.7
2017-Sep-24 16:30N 30°11' W 014°08'5919.8
2017-Sep-24 13:32N 30°52' W 013°19'119.9
2017-Sep-24 13:29N 30°52' W 013°19'1020.1
2017-Sep-24 13:01N 30°59' W 013°11'1020.1
2017-Sep-24 12:31N 31°06' W 013°03'1020.7
2017-Sep-24 12:00N 31°14' W 012°54'1020.7
2017-Sep-24 11:31N 31°21' W 012°46'1020.6
2017-Sep-24 11:00N 31°28' W 012°37'1020.5
2017-Sep-24 10:31N 31°35' W 012°29'1020.3
2017-Sep-24 10:00N 31°43' W 012°20'1619.4
2017-Sep-24 09:11N 31°54' W 012°07'2020.1
2017-Sep-24 08:12N 32°08' W 011°50'620.8
2017-Sep-24 07:54N 32°12' W 011°45'820.6
2017-Sep-24 07:30N 32°18' W 011°38'1020.8
2017-Sep-24 07:00N 32°25' W 011°29'1018.2
2017-Sep-24 06:27N 32°32' W 011°20'1021.2
2017-Sep-24 05:58N 32°39' W 011°12'1021.3
2017-Sep-24 05:30N 32°46' W 011°03'1121.1
2017-Sep-24 05:00N 32°53' W 010°54'1020.8
2017-Sep-24 04:30N 33°01' W 010°46'  
2017-Sep-21 01:57N 29°03' W 015°29'817.8
2017-Sep-21 01:30N 28°58' W 015°35'918.0
2017-Sep-21 01:01N 28°52' W 015°43'918.1
2017-Sep-21 00:30N 28°46' W 015°50'918.0
2017-Sep-21 00:00N 28°39' W 015°57'918.4
2017-Sep-20 23:30N 28°32' W 016°04'916.7
2017-Sep-20 22:59N 28°29' W 016°13'1 2.6
2017-Sep-20 22:30N 28°29' W 016°15'0 0.0
2017-Sep-20 21:59N 28°29' W 016°15'0 0.0
2017-Sep-20 21:29N 28°29' W 016°15'0 0.0
2017-Sep-20 20:58N 28°29' W 016°15'0 0.0
2017-Sep-20 20:30N 28°29' W 016°15'0 0.0
2017-Sep-20 20:00N 28°29' W 016°15'0 0.0
2017-Sep-20 19:30N 28°29' W 016°15'0 0.0
2017-Sep-20 19:00N 28°29' W 016°15'1 2.6
2017-Sep-20 18:29N 28°29' W 016°13'815.7
2017-Sep-20 18:00N 28°32' W 016°05'1618.0
2017-Sep-20 17:07N 28°38' W 016°23'319.8
2017-Sep-20 16:58N 28°38' W 016°26'1119.7
2017-Sep-20 16:24N 28°39' W 016°38'20 1.5
2017-Sep-20 03:04N 28°44' W 017°00'612.9
2017-Sep-20 02:34N 28°45' W 016°53'113.0
2017-Sep-20 02:28N 28°45' W 016°51'1113.2
2017-Sep-20 01:38N 28°45' W 016°39'513.0
2017-Sep-20 01:15N 28°46' W 016°33'312.5
2017-Sep-20 00:59N 28°46' W 016°30'612.5
2017-Sep-20 00:30N 28°46' W 016°23'612.6
2017-Sep-20 00:00N 28°47' W 016°16'713.0
2017-Sep-19 23:30N 28°47' W 016°08'612.6
2017-Sep-19 23:00N 28°46' W 016°01'713.4
2017-Sep-19 22:31N 28°43' W 015°55'919.0
2017-Sep-19 22:01N 28°38' W 015°45'918.6
2017-Sep-19 21:31N 28°32' W 015°37'1019.1
2017-Sep-19 21:01N 28°24' W 015°31'1019.0
2017-Sep-19 20:31N 28°16' W 015°26'918.1
2017-Sep-19 20:01N 28°07' W 015°22'3 5.4
2017-Sep-19 19:30N 28°09' W 015°25'0 0.0
2017-Sep-19 19:00N 28°09' W 015°25'0 0.0
2017-Sep-19 18:29N 28°09' W 015°25'0 0.0
2017-Sep-19 18:00N 28°09' W 015°25'0 0.0
2017-Sep-19 17:30N 28°09' W 015°25'0 0.0
2017-Sep-19 17:00N 28°09' W 015°25'0 0.0
2017-Sep-19 16:30N 28°09' W 015°25'0 0.0
2017-Sep-19 16:01N 28°09' W 015°25'0 0.0
2017-Sep-19 15:30N 28°09' W 015°25'0 0.0
2017-Sep-19 15:01N 28°09' W 015°25'0 0.0
2017-Sep-19 14:30N 28°09' W 015°25'0 0.0
2017-Sep-19 14:00N 28°09' W 015°25'0 0.0
2017-Sep-19 13:30N 28°09' W 015°25'0 0.0
2017-Sep-19 13:01N 28°09' W 015°25'0 0.0
2017-Sep-19 12:30N 28°09' W 015°25'0 0.0
2017-Sep-19 12:00N 28°09' W 015°25'0 0.0
2017-Sep-19 11:30N 28°09' W 015°25'0 0.0
2017-Sep-19 11:00N 28°09' W 015°25'0 0.0
2017-Sep-19 10:30N 28°09' W 015°25'0 0.0
2017-Sep-19 10:00N 28°09' W 015°25'0 0.0
2017-Sep-19 09:30N 28°09' W 015°25'0 0.0
2017-Sep-19 09:00N 28°09' W 015°25'0 0.0
2017-Sep-19 08:30N 28°09' W 015°25'0 0.0
2017-Sep-19 08:00N 28°09' W 015°25'0 0.0
2017-Sep-19 07:30N 28°09' W 015°25'0 0.0
2017-Sep-19 07:00N 28°09' W 015°25'0 0.0
2017-Sep-19 06:30N 28°09' W 015°25'0 0.0
2017-Sep-19 06:00N 28°09' W 015°25'0 0.0
2017-Sep-19 05:30N 28°09' W 015°25'0 0.0
2017-Sep-19 05:00N 28°09' W 015°25'0 0.0
2017-Sep-19 04:30N 28°09' W 015°25'0 0.0
2017-Sep-19 04:00N 28°09' W 015°25'0 0.0
2017-Sep-19 03:31N 28°09' W 015°25'0 0.0
2017-Sep-19 03:00N 28°09' W 015°25'0 0.0
2017-Sep-19 02:30N 28°09' W 015°25'0 0.0
2017-Sep-19 02:00N 28°09' W 015°25'0 0.0
2017-Sep-19 01:30N 28°09' W 015°25'0 0.0
2017-Sep-19 01:00N 28°09' W 015°25'0 0.0
2017-Sep-19 00:30N 28°09' W 015°25'0 0.0
2017-Sep-19 00:00N 28°09' W 015°25'0 0.0
2017-Sep-18 23:30N 28°09' W 015°25'0 0.0
2017-Sep-18 23:00N 28°09' W 015°25'0 0.0
2017-Sep-18 22:30N 28°09' W 015°25'0 0.0
2017-Sep-18 22:00N 28°09' W 015°25'0 0.0
2017-Sep-18 21:30N 28°09' W 015°25'0 0.0
2017-Sep-18 21:00N 28°09' W 015°25'0 0.0
2017-Sep-18 20:30N 28°09' W 015°25'0 0.0
2017-Sep-18 20:00N 28°09' W 015°25'0 0.0
2017-Sep-18 19:30N 28°09' W 015°25'0 0.0
2017-Sep-18 19:00N 28°09' W 015°25'0 0.0
2017-Sep-18 18:30N 28°09' W 015°25'0 0.0
2017-Sep-18 18:00N 28°09' W 015°25'0 0.0
2017-Sep-18 17:30N 28°09' W 015°25'0 0.0
2017-Sep-18 17:00N 28°09' W 015°25'0 0.0
2017-Sep-18 16:30N 28°09' W 015°25'0 0.0
2017-Sep-18 16:00N 28°09' W 015°25'0 0.0
2017-Sep-18 15:30N 28°09' W 015°25'0 0.0
2017-Sep-18 15:00N 28°09' W 015°25'0 0.0
2017-Sep-18 14:30N 28°09' W 015°25'0 0.0
2017-Sep-18 14:00N 28°09' W 015°25'0 0.0
2017-Sep-18 13:30N 28°09' W 015°25'0 0.0
2017-Sep-18 13:00N 28°09' W 015°25'0 0.0
2017-Sep-18 12:30N 28°09' W 015°25'0 0.0
2017-Sep-18 12:01N 28°09' W 015°25'0 0.0
2017-Sep-18 11:30N 28°09' W 015°25'0 0.0
2017-Sep-18 11:01N 28°09' W 015°25'0 0.0
2017-Sep-18 10:30N 28°09' W 015°25'0 0.0
2017-Sep-18 10:00N 28°09' W 015°25'0 0.0
2017-Sep-18 09:30N 28°09' W 015°25'0 0.0
2017-Sep-18 09:00N 28°09' W 015°25'0 0.7
2017-Sep-18 08:30N 28°08' W 015°25'2 3.5
2017-Sep-18 08:01N 28°07' W 015°24'5 9.1
2017-Sep-18 07:30N 28°12' W 015°23'815.7
2017-Sep-18 07:00N 28°17' W 015°30'917.1
2017-Sep-18 06:30N 28°19' W 015°39'816.9
2017-Sep-18 06:00N 28°21' W 015°49'816.7
2017-Sep-18 05:30N 28°24' W 015°58'817.0
2017-Sep-18 05:00N 28°27' W 016°07'713.8
2017-Sep-18 04:30N 28°29' W 016°14'0 0.9
2017-Sep-18 04:00N 28°29' W 016°15'0 0.0
2017-Sep-18 03:30N 28°29' W 016°15'0 0.0
2017-Sep-18 03:00N 28°29' W 016°15'0 0.0
2017-Sep-18 02:30N 28°29' W 016°15'0 0.0
2017-Sep-18 02:00N 28°29' W 016°15'0 0.0
2017-Sep-18 01:30N 28°29' W 016°15'0 0.0
2017-Sep-18 01:00N 28°29' W 016°15'0 0.7
2017-Sep-18 00:29N 28°29' W 016°14'612.3
2017-Sep-18 00:00N 28°30' W 016°08'1020.1
2017-Sep-17 23:31N 28°37' W 015°59'1120.5
2017-Sep-17 22:58N 28°45' W 015°50'920.0
2017-Sep-17 22:30N 28°51' W 015°43'1019.8
2017-Sep-17 22:00N 28°59' W 015°35'1019.7
2017-Sep-17 21:30N 29°05' W 015°27'1019.6
2017-Sep-17 21:00N 29°12' W 015°19'1019.6
2017-Sep-17 20:30N 29°19' W 015°11'1019.7
2017-Sep-17 20:00N 29°26' W 015°03'1020.1
2017-Sep-17 19:30N 29°33' W 014°55'1120.3
2017-Sep-17 18:58N 29°41' W 014°46'920.1
2017-Sep-17 18:30N 29°47' W 014°38'1419.9
2017-Sep-17 17:48N 29°56' W 014°26'620.0
2017-Sep-17 17:30N 30°01' W 014°21'3720.0
2017-Sep-17 15:39N 30°26' W 013°50'42520.3
2017-Sep-16 18:45N 35°24' W 007°49'520.5
2017-Sep-16 18:30N 35°28' W 007°44'1120.6
2017-Sep-16 17:58N 35°35' W 007°34'26 0.9
2017-Sep-15 11:59N 35°54' W 007°11'611.5
2017-Sep-15 11:30N 35°50' W 007°16'1811.7
2017-Sep-15 09:56N 35°37' W 007°32'511.9
2017-Sep-15 09:30N 35°33' W 007°37'1411.9
2017-Sep-15 08:22N 35°24' W 007°49'411.7
2017-Sep-15 08:00N 35°21' W 007°52'611.8
2017-Sep-15 07:30N 35°17' W 007°58'611.9
2017-Sep-15 07:00N 35°12' W 008°03'612.2
2017-Sep-15 06:30N 35°08' W 008°08'1312.7
2017-Sep-15 05:29N 34°59' W 008°18'918.5
2017-Sep-15 05:00N 34°53' W 008°27'918.5
2017-Sep-15 04:30N 34°47' W 008°35'918.5
2017-Sep-15 04:00N 34°40' W 008°43'918.5
2017-Sep-15 03:30N 34°34' W 008°51'918.5
2017-Sep-15 03:00N 34°27' W 008°59'5318.4
2017-Sep-15 00:06N 33°50' W 009°46'2118.3
2017-Sep-14 22:58N 33°36' W 010°04'918.1
2017-Sep-14 22:28N 33°29' W 010°11'1618.1
2017-Sep-14 21:36N 33°18' W 010°24'218.0
2017-Sep-14 21:30N 33°17' W 010°26'918.0
2017-Sep-14 21:00N 33°11' W 010°34'917.9
2017-Sep-14 20:31N 33°04' W 010°41'917.9
2017-Sep-14 20:00N 32°58' W 010°49'917.8
2017-Sep-14 19:30N 32°52' W 010°56'  

Dump ship's entire track history